sensor_id;sensor_type;location;lat;lon;timestamp;P1;durP1;ratioP1;P2;durP2;ratioP2
62401;SDS011;48440;51.224;22.506;2023-05-07T00:00:01;1.67;;;1.30;;
62401;SDS011;48440;51.224;22.506;2023-05-07T00:02:28;1.77;;;1.30;;
62401;SDS011;48440;51.224;22.506;2023-05-07T00:04:54;2.00;;;1.40;;
62401;SDS011;48440;51.224;22.506;2023-05-07T00:07:20;2.13;;;1.60;;
62401;SDS011;48440;51.224;22.506;2023-05-07T00:09:45;2.45;;;1.27;;
62401;SDS011;48440;51.224;22.506;2023-05-07T00:12:11;1.92;;;1.30;;
62401;SDS011;48440;51.224;22.506;2023-05-07T00:14:36;2.30;;;1.50;;
62401;SDS011;48440;51.224;22.506;2023-05-07T00:17:02;1.70;;;1.20;;
62401;SDS011;48440;51.224;22.506;2023-05-07T00:19:27;3.25;;;1.40;;
62401;SDS011;48440;51.224;22.506;2023-05-07T00:21:53;3.03;;;1.38;;
62401;SDS011;48440;51.224;22.506;2023-05-07T00:24:24;4.07;;;1.30;;
62401;SDS011;48440;51.224;22.506;2023-05-07T00:26:49;2.20;;;1.45;;
62401;SDS011;48440;51.224;22.506;2023-05-07T00:29:15;2.10;;;1.35;;
62401;SDS011;48440;51.224;22.506;2023-05-07T00:31:41;2.67;;;1.40;;
62401;SDS011;48440;51.224;22.506;2023-05-07T00:34:06;2.40;;;1.50;;
62401;SDS011;48440;51.224;22.506;2023-05-07T00:36:31;1.80;;;1.30;;
62401;SDS011;48440;51.224;22.506;2023-05-07T00:38:59;1.90;;;1.45;;
62401;SDS011;48440;51.224;22.506;2023-05-07T00:41:25;1.83;;;1.38;;
62401;SDS011;48440;51.224;22.506;2023-05-07T00:43:51;2.10;;;1.35;;
62401;SDS011;48440;51.224;22.506;2023-05-07T00:46:20;1.73;;;1.20;;
62401;SDS011;48440;51.224;22.506;2023-05-07T00:48:46;1.95;;;1.17;;
62401;SDS011;48440;51.224;22.506;2023-05-07T00:51:12;3.05;;;1.10;;
62401;SDS011;48440;51.224;22.506;2023-05-07T00:53:38;2.00;;;0.93;;
62401;SDS011;48440;51.224;22.506;2023-05-07T00:56:04;1.48;;;1.08;;
62401;SDS011;48440;51.224;22.506;2023-05-07T00:58:31;1.92;;;1.33;;
62401;SDS011;48440;51.224;22.506;2023-05-07T01:00:57;2.25;;;1.13;;
62401;SDS011;48440;51.224;22.506;2023-05-07T01:03:23;2.08;;;1.10;;
62401;SDS011;48440;51.224;22.506;2023-05-07T01:05:48;1.80;;;1.23;;
62401;SDS011;48440;51.224;22.506;2023-05-07T01:08:15;1.48;;;1.17;;
62401;SDS011;48440;51.224;22.506;2023-05-07T01:10:41;1.50;;;1.15;;
62401;SDS011;48440;51.224;22.506;2023-05-07T01:13:11;2.20;;;1.30;;
62401;SDS011;48440;51.224;22.506;2023-05-07T01:15:37;4.30;;;1.20;;
62401;SDS011;48440;51.224;22.506;2023-05-07T01:18:03;1.63;;;1.25;;
62401;SDS011;48440;51.224;22.506;2023-05-07T01:20:29;1.30;;;1.00;;
62401;SDS011;48440;51.224;22.506;2023-05-07T01:22:55;1.70;;;1.20;;
62401;SDS011;48440;51.224;22.506;2023-05-07T01:25:22;1.55;;;1.20;;
62401;SDS011;48440;51.224;22.506;2023-05-07T01:27:48;1.33;;;1.13;;
62401;SDS011;48440;51.224;22.506;2023-05-07T01:30:14;2.17;;;1.00;;
62401;SDS011;48440;51.224;22.506;2023-05-07T01:35:17;1.43;;;1.10;;
62401;SDS011;48440;51.224;22.506;2023-05-07T01:37:45;1.40;;;1.17;;
62401;SDS011;48440;51.224;22.506;2023-05-07T01:40:12;3.17;;;1.30;;
62401;SDS011;48440;51.224;22.506;2023-05-07T01:42:38;1.20;;;1.10;;
62401;SDS011;48440;51.224;22.506;2023-05-07T01:45:04;2.25;;;1.00;;
62401;SDS011;48440;51.224;22.506;2023-05-07T01:47:30;3.05;;;1.33;;
62401;SDS011;48440;51.224;22.506;2023-05-07T01:49:56;1.98;;;1.27;;
62401;SDS011;48440;51.224;22.506;2023-05-07T01:52:23;1.90;;;1.30;;
62401;SDS011;48440;51.224;22.506;2023-05-07T01:54:50;2.70;;;1.20;;
62401;SDS011;48440;51.224;22.506;2023-05-07T01:57:15;1.33;;;1.00;;
62401;SDS011;48440;51.224;22.506;2023-05-07T01:59:41;3.13;;;1.40;;
62401;SDS011;48440;51.224;22.506;2023-05-07T02:02:06;1.70;;;1.23;;
62401;SDS011;48440;51.224;22.506;2023-05-07T02:04:32;1.75;;;1.10;;
62401;SDS011;48440;51.224;22.506;2023-05-07T02:06:57;1.48;;;1.25;;
62401;SDS011;48440;51.224;22.506;2023-05-07T02:09:23;2.20;;;1.30;;
62401;SDS011;48440;51.224;22.506;2023-05-07T02:11:48;2.03;;;1.42;;
62401;SDS011;48440;51.224;22.506;2023-05-07T02:14:14;1.95;;;1.25;;
62401;SDS011;48440;51.224;22.506;2023-05-07T02:16:40;2.38;;;1.40;;
62401;SDS011;48440;51.224;22.506;2023-05-07T02:19:06;2.53;;;1.30;;
62401;SDS011;48440;51.224;22.506;2023-05-07T02:21:31;1.88;;;1.23;;
62401;SDS011;48440;51.224;22.506;2023-05-07T02:23:57;2.28;;;1.20;;
62401;SDS011;48440;51.224;22.506;2023-05-07T02:26:22;1.65;;;1.00;;
62401;SDS011;48440;51.224;22.506;2023-05-07T02:28:47;1.67;;;1.20;;
62401;SDS011;48440;51.224;22.506;2023-05-07T02:31:13;2.50;;;1.42;;
62401;SDS011;48440;51.224;22.506;2023-05-07T02:33:38;1.95;;;1.13;;
62401;SDS011;48440;51.224;22.506;2023-05-07T02:36:10;1.60;;;1.10;;
62401;SDS011;48440;51.224;22.506;2023-05-07T02:38:36;1.20;;;1.00;;
62401;SDS011;48440;51.224;22.506;2023-05-07T02:41:01;1.55;;;1.10;;
62401;SDS011;48440;51.224;22.506;2023-05-07T02:43:27;1.58;;;1.10;;
62401;SDS011;48440;51.224;22.506;2023-05-07T02:46:06;5.25;;;1.30;;
62401;SDS011;48440;51.224;22.506;2023-05-07T02:48:33;1.60;;;1.20;;
62401;SDS011;48440;51.224;22.506;2023-05-07T02:50:59;2.33;;;1.10;;
62401;SDS011;48440;51.224;22.506;2023-05-07T02:53:25;1.45;;;1.05;;
62401;SDS011;48440;51.224;22.506;2023-05-07T02:55:52;2.53;;;1.10;;
62401;SDS011;48440;51.224;22.506;2023-05-07T02:58:18;2.38;;;1.10;;
62401;SDS011;48440;51.224;22.506;2023-05-07T03:00:44;1.65;;;1.15;;
62401;SDS011;48440;51.224;22.506;2023-05-07T03:03:09;1.02;;;0.93;;
62401;SDS011;48440;51.224;22.506;2023-05-07T03:05:35;1.67;;;1.10;;
62401;SDS011;48440;51.224;22.506;2023-05-07T03:08:01;1.15;;;0.93;;
62401;SDS011;48440;51.224;22.506;2023-05-07T03:10:26;2.42;;;1.00;;
62401;SDS011;48440;51.224;22.506;2023-05-07T03:12:52;1.33;;;1.10;;
62401;SDS011;48440;51.224;22.506;2023-05-07T03:15:17;1.38;;;1.02;;
62401;SDS011;48440;51.224;22.506;2023-05-07T03:17:43;1.35;;;1.00;;
62401;SDS011;48440;51.224;22.506;2023-05-07T03:20:08;1.73;;;1.00;;
62401;SDS011;48440;51.224;22.506;2023-05-07T03:22:34;1.90;;;0.98;;
62401;SDS011;48440;51.224;22.506;2023-05-07T03:25:00;1.95;;;1.10;;
62401;SDS011;48440;51.224;22.506;2023-05-07T03:27:25;1.73;;;1.10;;
62401;SDS011;48440;51.224;22.506;2023-05-07T03:29:51;1.58;;;1.15;;
62401;SDS011;48440;51.224;22.506;2023-05-07T03:32:16;1.20;;;1.00;;
62401;SDS011;48440;51.224;22.506;2023-05-07T03:34:42;1.35;;;1.00;;
62401;SDS011;48440;51.224;22.506;2023-05-07T03:37:07;2.65;;;1.00;;
62401;SDS011;48440;51.224;22.506;2023-05-07T03:39:32;1.50;;;0.98;;
62401;SDS011;48440;51.224;22.506;2023-05-07T03:41:58;1.88;;;0.98;;
62401;SDS011;48440;51.224;22.506;2023-05-07T03:44:23;2.10;;;1.10;;
62401;SDS011;48440;51.224;22.506;2023-05-07T03:46:49;1.77;;;1.15;;
62401;SDS011;48440;51.224;22.506;2023-05-07T03:49:14;1.10;;;1.00;;
62401;SDS011;48440;51.224;22.506;2023-05-07T03:51:40;1.63;;;1.27;;
62401;SDS011;48440;51.224;22.506;2023-05-07T03:54:05;1.38;;;1.00;;
62401;SDS011;48440;51.224;22.506;2023-05-07T03:56:31;1.70;;;1.10;;
62401;SDS011;48440;51.224;22.506;2023-05-07T03:58:56;1.67;;;1.10;;
62401;SDS011;48440;51.224;22.506;2023-05-07T04:01:22;1.25;;;0.90;;
62401;SDS011;48440;51.224;22.506;2023-05-07T04:03:47;2.28;;;1.05;;
62401;SDS011;48440;51.224;22.506;2023-05-07T04:06:13;1.55;;;1.00;;
62401;SDS011;48440;51.224;22.506;2023-05-07T04:08:38;1.20;;;1.02;;
62401;SDS011;48440;51.224;22.506;2023-05-07T04:11:04;1.45;;;1.00;;
62401;SDS011;48440;51.224;22.506;2023-05-07T04:13:29;1.80;;;1.13;;
62401;SDS011;48440;51.224;22.506;2023-05-07T04:15:55;1.23;;;1.05;;
62401;SDS011;48440;51.224;22.506;2023-05-07T04:18:21;1.63;;;1.10;;
62401;SDS011;48440;51.224;22.506;2023-05-07T04:20:47;2.63;;;1.10;;
62401;SDS011;48440;51.224;22.506;2023-05-07T04:23:14;1.40;;;1.10;;
62401;SDS011;48440;51.224;22.506;2023-05-07T04:25:40;1.23;;;1.00;;
62401;SDS011;48440;51.224;22.506;2023-05-07T04:28:05;1.08;;;0.90;;
62401;SDS011;48440;51.224;22.506;2023-05-07T04:30:31;2.47;;;1.05;;
62401;SDS011;48440;51.224;22.506;2023-05-07T04:32:56;1.75;;;1.00;;
62401;SDS011;48440;51.224;22.506;2023-05-07T04:35:22;1.10;;;1.00;;
62401;SDS011;48440;51.224;22.506;2023-05-07T04:37:48;1.60;;;1.00;;
62401;SDS011;48440;51.224;22.506;2023-05-07T04:40:13;1.38;;;0.90;;
62401;SDS011;48440;51.224;22.506;2023-05-07T04:42:39;1.30;;;1.00;;
62401;SDS011;48440;51.224;22.506;2023-05-07T04:45:04;1.08;;;0.90;;
62401;SDS011;48440;51.224;22.506;2023-05-07T04:47:30;1.40;;;0.90;;
62401;SDS011;48440;51.224;22.506;2023-05-07T04:49:57;1.10;;;0.90;;
62401;SDS011;48440;51.224;22.506;2023-05-07T04:52:22;1.10;;;0.90;;
62401;SDS011;48440;51.224;22.506;2023-05-07T04:54:48;1.13;;;0.90;;
62401;SDS011;48440;51.224;22.506;2023-05-07T04:57:13;2.75;;;1.20;;
62401;SDS011;48440;51.224;22.506;2023-05-07T04:59:39;1.58;;;1.00;;
62401;SDS011;48440;51.224;22.506;2023-05-07T05:02:04;1.27;;;1.10;;
62401;SDS011;48440;51.224;22.506;2023-05-07T05:04:30;1.42;;;1.10;;
62401;SDS011;48440;51.224;22.506;2023-05-07T05:06:59;2.05;;;1.00;;
62401;SDS011;48440;51.224;22.506;2023-05-07T05:09:24;1.58;;;1.10;;
62401;SDS011;48440;51.224;22.506;2023-05-07T05:11:50;1.25;;;0.90;;
62401;SDS011;48440;51.224;22.506;2023-05-07T05:14:15;1.90;;;1.10;;
62401;SDS011;48440;51.224;22.506;2023-05-07T05:16:40;1.13;;;0.82;;
62401;SDS011;48440;51.224;22.506;2023-05-07T05:19:06;2.15;;;1.30;;
62401;SDS011;48440;51.224;22.506;2023-05-07T05:21:31;3.15;;;1.10;;
62401;SDS011;48440;51.224;22.506;2023-05-07T05:23:57;1.60;;;1.25;;
62401;SDS011;48440;51.224;22.506;2023-05-07T05:26:23;1.48;;;1.02;;
62401;SDS011;48440;51.224;22.506;2023-05-07T05:28:49;1.90;;;1.38;;
62401;SDS011;48440;51.224;22.506;2023-05-07T05:31:14;1.63;;;1.20;;
62401;SDS011;48440;51.224;22.506;2023-05-07T05:33:41;1.50;;;1.20;;
62401;SDS011;48440;51.224;22.506;2023-05-07T05:36:08;1.48;;;1.13;;
62401;SDS011;48440;51.224;22.506;2023-05-07T05:38:34;1.80;;;1.20;;
62401;SDS011;48440;51.224;22.506;2023-05-07T05:41:00;2.30;;;1.30;;
62401;SDS011;48440;51.224;22.506;2023-05-07T05:43:25;1.85;;;1.25;;
62401;SDS011;48440;51.224;22.506;2023-05-07T05:45:50;2.10;;;1.30;;
62401;SDS011;48440;51.224;22.506;2023-05-07T05:48:16;1.38;;;1.20;;
62401;SDS011;48440;51.224;22.506;2023-05-07T05:50:42;1.45;;;1.10;;
62401;SDS011;48440;51.224;22.506;2023-05-07T05:53:07;1.55;;;1.30;;
62401;SDS011;48440;51.224;22.506;2023-05-07T05:55:33;1.67;;;1.30;;
62401;SDS011;48440;51.224;22.506;2023-05-07T05:58:02;1.83;;;1.35;;
62401;SDS011;48440;51.224;22.506;2023-05-07T06:00:27;1.40;;;1.15;;
62401;SDS011;48440;51.224;22.506;2023-05-07T06:02:53;1.73;;;1.25;;
62401;SDS011;48440;51.224;22.506;2023-05-07T06:05:18;1.70;;;1.30;;
62401;SDS011;48440;51.224;22.506;2023-05-07T06:07:44;1.50;;;1.23;;
62401;SDS011;48440;51.224;22.506;2023-05-07T06:10:09;2.35;;;1.60;;
62401;SDS011;48440;51.224;22.506;2023-05-07T06:12:35;2.03;;;1.50;;
62401;SDS011;48440;51.224;22.506;2023-05-07T06:15:00;1.20;;;1.00;;
62401;SDS011;48440;51.224;22.506;2023-05-07T06:17:26;1.92;;;1.20;;
62401;SDS011;48440;51.224;22.506;2023-05-07T06:19:52;2.15;;;1.50;;
62401;SDS011;48440;51.224;22.506;2023-05-07T06:22:18;1.80;;;1.30;;
62401;SDS011;48440;51.224;22.506;2023-05-07T06:24:43;2.33;;;1.40;;
62401;SDS011;48440;51.224;22.506;2023-05-07T06:27:09;1.88;;;1.27;;
62401;SDS011;48440;51.224;22.506;2023-05-07T06:29:34;1.98;;;1.38;;
62401;SDS011;48440;51.224;22.506;2023-05-07T06:32:06;2.08;;;1.50;;
62401;SDS011;48440;51.224;22.506;2023-05-07T06:34:36;1.85;;;1.40;;
62401;SDS011;48440;51.224;22.506;2023-05-07T06:37:02;2.47;;;1.30;;
62401;SDS011;48440;51.224;22.506;2023-05-07T06:39:27;1.90;;;1.30;;
62401;SDS011;48440;51.224;22.506;2023-05-07T06:41:53;1.83;;;1.50;;
62401;SDS011;48440;51.224;22.506;2023-05-07T06:44:18;1.95;;;1.40;;
62401;SDS011;48440;51.224;22.506;2023-05-07T06:46:44;2.33;;;1.60;;
62401;SDS011;48440;51.224;22.506;2023-05-07T06:49:12;2.17;;;1.55;;
62401;SDS011;48440;51.224;22.506;2023-05-07T06:51:38;2.47;;;1.58;;
62401;SDS011;48440;51.224;22.506;2023-05-07T06:54:04;2.63;;;1.60;;
62401;SDS011;48440;51.224;22.506;2023-05-07T06:56:30;1.88;;;1.30;;
62401;SDS011;48440;51.224;22.506;2023-05-07T06:58:55;2.10;;;1.48;;
62401;SDS011;48440;51.224;22.506;2023-05-07T07:01:21;2.25;;;1.52;;
62401;SDS011;48440;51.224;22.506;2023-05-07T07:03:47;2.22;;;1.40;;
62401;SDS011;48440;51.224;22.506;2023-05-07T07:06:12;2.72;;;1.70;;
62401;SDS011;48440;51.224;22.506;2023-05-07T07:08:38;2.10;;;1.38;;
62401;SDS011;48440;51.224;22.506;2023-05-07T07:11:04;2.50;;;1.70;;
62401;SDS011;48440;51.224;22.506;2023-05-07T07:13:30;2.13;;;1.55;;
62401;SDS011;48440;51.224;22.506;2023-05-07T07:15:55;2.33;;;1.60;;
62401;SDS011;48440;51.224;22.506;2023-05-07T07:18:21;2.80;;;1.90;;
62401;SDS011;48440;51.224;22.506;2023-05-07T07:20:46;2.30;;;1.50;;
62401;SDS011;48440;51.224;22.506;2023-05-07T07:23:12;3.20;;;1.63;;
62401;SDS011;48440;51.224;22.506;2023-05-07T07:25:38;4.75;;;1.90;;
62401;SDS011;48440;51.224;22.506;2023-05-07T07:28:03;2.00;;;1.50;;
62401;SDS011;48440;51.224;22.506;2023-05-07T07:30:29;2.88;;;1.40;;
62401;SDS011;48440;51.224;22.506;2023-05-07T07:32:54;2.50;;;1.40;;
62401;SDS011;48440;51.224;22.506;2023-05-07T07:35:22;2.10;;;1.60;;
62401;SDS011;48440;51.224;22.506;2023-05-07T07:37:48;2.60;;;1.90;;
62401;SDS011;48440;51.224;22.506;2023-05-07T07:40:15;2.20;;;1.70;;
62401;SDS011;48440;51.224;22.506;2023-05-07T07:42:40;3.47;;;1.77;;
62401;SDS011;48440;51.224;22.506;2023-05-07T07:45:06;2.10;;;1.50;;
62401;SDS011;48440;51.224;22.506;2023-05-07T07:47:32;2.67;;;1.80;;
62401;SDS011;48440;51.224;22.506;2023-05-07T07:49:58;2.20;;;1.70;;
62401;SDS011;48440;51.224;22.506;2023-05-07T07:52:23;2.88;;;1.90;;
62401;SDS011;48440;51.224;22.506;2023-05-07T07:54:48;4.00;;;1.60;;
62401;SDS011;48440;51.224;22.506;2023-05-07T07:57:14;3.10;;;2.22;;
62401;SDS011;48440;51.224;22.506;2023-05-07T07:59:39;2.25;;;1.90;;
62401;SDS011;48440;51.224;22.506;2023-05-07T08:02:05;2.83;;;1.75;;
62401;SDS011;48440;51.224;22.506;2023-05-07T08:04:30;2.20;;;1.65;;
62401;SDS011;48440;51.224;22.506;2023-05-07T08:06:58;2.45;;;2.05;;
62401;SDS011;48440;51.224;22.506;2023-05-07T08:09:24;2.90;;;1.85;;
62401;SDS011;48440;51.224;22.506;2023-05-07T08:11:52;3.33;;;1.98;;
62401;SDS011;48440;51.224;22.506;2023-05-07T08:14:18;3.67;;;2.13;;
62401;SDS011;48440;51.224;22.506;2023-05-07T08:16:44;2.75;;;2.00;;
62401;SDS011;48440;51.224;22.506;2023-05-07T08:19:09;2.83;;;1.90;;
62401;SDS011;48440;51.224;22.506;2023-05-07T08:21:38;3.42;;;1.80;;
62401;SDS011;48440;51.224;22.506;2023-05-07T08:24:04;3.05;;;1.90;;
62401;SDS011;48440;51.224;22.506;2023-05-07T08:26:30;2.50;;;2.00;;
62401;SDS011;48440;51.224;22.506;2023-05-07T08:28:56;3.08;;;1.85;;
62401;SDS011;48440;51.224;22.506;2023-05-07T08:31:22;3.05;;;1.80;;
62401;SDS011;48440;51.224;22.506;2023-05-07T08:33:47;3.83;;;1.50;;
62401;SDS011;48440;51.224;22.506;2023-05-07T08:36:13;2.72;;;1.75;;
62401;SDS011;48440;51.224;22.506;2023-05-07T08:38:38;3.63;;;1.70;;
62401;SDS011;48440;51.224;22.506;2023-05-07T08:41:05;2.72;;;1.90;;
62401;SDS011;48440;51.224;22.506;2023-05-07T08:43:32;2.60;;;1.75;;
62401;SDS011;48440;51.224;22.506;2023-05-07T08:46:01;2.42;;;1.80;;
62401;SDS011;48440;51.224;22.506;2023-05-07T08:48:27;3.35;;;1.70;;
62401;SDS011;48440;51.224;22.506;2023-05-07T08:50:55;4.18;;;2.00;;
62401;SDS011;48440;51.224;22.506;2023-05-07T08:53:22;2.17;;;1.60;;
62401;SDS011;48440;51.224;22.506;2023-05-07T08:55:51;2.90;;;2.00;;
62401;SDS011;48440;51.224;22.506;2023-05-07T08:58:20;2.65;;;2.00;;
62401;SDS011;48440;51.224;22.506;2023-05-07T09:00:46;2.85;;;2.03;;
62401;SDS011;48440;51.224;22.506;2023-05-07T09:03:12;2.78;;;1.80;;
62401;SDS011;48440;51.224;22.506;2023-05-07T09:05:39;3.33;;;2.15;;
62401;SDS011;48440;51.224;22.506;2023-05-07T09:08:06;2.35;;;1.90;;
62401;SDS011;48440;51.224;22.506;2023-05-07T09:10:33;3.83;;;2.08;;
62401;SDS011;48440;51.224;22.506;2023-05-07T09:13:02;4.85;;;2.20;;
62401;SDS011;48440;51.224;22.506;2023-05-07T09:15:30;3.17;;;2.05;;
62401;SDS011;48440;51.224;22.506;2023-05-07T09:18:03;2.58;;;1.90;;
62401;SDS011;48440;51.224;22.506;2023-05-07T09:20:32;2.80;;;1.90;;
62401;SDS011;48440;51.224;22.506;2023-05-07T09:22:58;3.03;;;2.00;;
62401;SDS011;48440;51.224;22.506;2023-05-07T09:25:28;2.00;;;1.80;;
62401;SDS011;48440;51.224;22.506;2023-05-07T09:27:56;3.38;;;1.90;;
62401;SDS011;48440;51.224;22.506;2023-05-07T09:30:22;2.30;;;1.80;;
62401;SDS011;48440;51.224;22.506;2023-05-07T09:32:52;2.35;;;1.70;;
62401;SDS011;48440;51.224;22.506;2023-05-07T09:35:18;2.25;;;1.70;;
62401;SDS011;48440;51.224;22.506;2023-05-07T09:37:46;2.70;;;2.10;;
62401;SDS011;48440;51.224;22.506;2023-05-07T09:40:25;3.28;;;1.85;;
62401;SDS011;48440;51.224;22.506;2023-05-07T09:42:52;2.72;;;1.70;;
62401;SDS011;48440;51.224;22.506;2023-05-07T09:45:25;2.83;;;1.80;;
62401;SDS011;48440;51.224;22.506;2023-05-07T09:47:55;2.50;;;1.92;;
62401;SDS011;48440;51.224;22.506;2023-05-07T09:50:26;2.63;;;1.60;;
62401;SDS011;48440;51.224;22.506;2023-05-07T09:52:56;2.33;;;1.80;;
62401;SDS011;48440;51.224;22.506;2023-05-07T09:55:23;2.60;;;1.75;;
62401;SDS011;48440;51.224;22.506;2023-05-07T09:57:50;2.70;;;1.70;;
62401;SDS011;48440;51.224;22.506;2023-05-07T10:00:17;2.70;;;1.80;;
62401;SDS011;48440;51.224;22.506;2023-05-07T10:02:45;2.20;;;1.67;;
62401;SDS011;48440;51.224;22.506;2023-05-07T10:05:14;2.40;;;1.75;;
62401;SDS011;48440;51.224;22.506;2023-05-07T10:07:40;2.20;;;1.63;;
62401;SDS011;48440;51.224;22.506;2023-05-07T10:10:06;2.50;;;1.85;;
62401;SDS011;48440;51.224;22.506;2023-05-07T10:12:32;2.28;;;1.55;;
62401;SDS011;48440;51.224;22.506;2023-05-07T10:15:04;2.17;;;1.55;;
62401;SDS011;48440;51.224;22.506;2023-05-07T10:17:37;3.28;;;1.77;;
62401;SDS011;48440;51.224;22.506;2023-05-07T10:20:07;2.53;;;1.77;;
62401;SDS011;48440;51.224;22.506;2023-05-07T10:22:47;2.38;;;1.70;;
62401;SDS011;48440;51.224;22.506;2023-05-07T10:25:21;2.88;;;1.92;;
62401;SDS011;48440;51.224;22.506;2023-05-07T10:27:50;2.10;;;1.58;;
62401;SDS011;48440;51.224;22.506;2023-05-07T10:33:06;2.47;;;1.50;;
62401;SDS011;48440;51.224;22.506;2023-05-07T10:35:40;2.28;;;1.60;;
62401;SDS011;48440;51.224;22.506;2023-05-07T10:38:07;2.00;;;1.50;;
62401;SDS011;48440;51.224;22.506;2023-05-07T10:40:34;1.90;;;1.48;;
62401;SDS011;48440;51.224;22.506;2023-05-07T10:43:04;2.20;;;1.60;;
62401;SDS011;48440;51.224;22.506;2023-05-07T10:45:30;2.00;;;1.55;;
62401;SDS011;48440;51.224;22.506;2023-05-07T10:48:12;1.98;;;1.40;;
62401;SDS011;48440;51.224;22.506;2023-05-07T10:50:39;2.75;;;1.70;;
62401;SDS011;48440;51.224;22.506;2023-05-07T10:55:40;2.10;;;1.60;;
62401;SDS011;48440;51.224;22.506;2023-05-07T11:04:13;2.60;;;1.80;;
62401;SDS011;48440;51.224;22.506;2023-05-07T11:06:52;2.67;;;1.70;;
62401;SDS011;48440;51.224;22.506;2023-05-07T11:09:55;2.47;;;1.73;;
62401;SDS011;48440;51.224;22.506;2023-05-07T11:15:04;2.60;;;1.90;;
62401;SDS011;48440;51.224;22.506;2023-05-07T11:17:32;2.67;;;1.83;;
62401;SDS011;48440;51.224;22.506;2023-05-07T11:19:59;2.15;;;1.65;;
62401;SDS011;48440;51.224;22.506;2023-05-07T11:25:05;3.17;;;1.80;;
62401;SDS011;48440;51.224;22.506;2023-05-07T11:27:31;3.33;;;1.70;;
62401;SDS011;48440;51.224;22.506;2023-05-07T11:29:58;2.08;;;1.60;;
62401;SDS011;48440;51.224;22.506;2023-05-07T11:34:53;2.33;;;1.85;;
62401;SDS011;48440;51.224;22.506;2023-05-07T11:37:20;1.98;;;1.50;;
62401;SDS011;48440;51.224;22.506;2023-05-07T11:39:46;2.00;;;1.50;;
62401;SDS011;48440;51.224;22.506;2023-05-07T11:42:25;3.05;;;1.80;;
62401;SDS011;48440;51.224;22.506;2023-05-07T11:44:51;2.10;;;1.80;;
62401;SDS011;48440;51.224;22.506;2023-05-07T11:47:17;2.90;;;2.00;;
62401;SDS011;48440;51.224;22.506;2023-05-07T11:49:45;2.42;;;1.70;;
62401;SDS011;48440;51.224;22.506;2023-05-07T11:52:13;2.45;;;1.67;;
62401;SDS011;48440;51.224;22.506;2023-05-07T11:54:38;2.00;;;1.60;;
62401;SDS011;48440;51.224;22.506;2023-05-07T11:57:04;3.28;;;1.83;;
62401;SDS011;48440;51.224;22.506;2023-05-07T11:59:37;2.97;;;1.77;;
62401;SDS011;48440;51.224;22.506;2023-05-07T12:02:05;2.33;;;1.65;;
62401;SDS011;48440;51.224;22.506;2023-05-07T12:04:31;3.38;;;1.83;;
62401;SDS011;48440;51.224;22.506;2023-05-07T12:06:57;2.30;;;1.83;;
62401;SDS011;48440;51.224;22.506;2023-05-07T12:09:22;2.70;;;1.65;;
62401;SDS011;48440;51.224;22.506;2023-05-07T12:11:48;2.80;;;1.90;;
62401;SDS011;48440;51.224;22.506;2023-05-07T12:14:16;2.53;;;1.63;;
62401;SDS011;48440;51.224;22.506;2023-05-07T12:16:41;3.15;;;1.88;;
62401;SDS011;48440;51.224;22.506;2023-05-07T12:19:08;1.75;;;1.40;;
62401;SDS011;48440;51.224;22.506;2023-05-07T12:21:37;2.38;;;1.92;;
62401;SDS011;48440;51.224;22.506;2023-05-07T12:24:03;2.90;;;1.70;;
62401;SDS011;48440;51.224;22.506;2023-05-07T12:26:29;2.20;;;1.60;;
62401;SDS011;48440;51.224;22.506;2023-05-07T12:28:55;2.72;;;1.90;;
62401;SDS011;48440;51.224;22.506;2023-05-07T12:31:25;2.20;;;1.67;;
62401;SDS011;48440;51.224;22.506;2023-05-07T12:33:51;2.45;;;1.60;;
62401;SDS011;48440;51.224;22.506;2023-05-07T12:36:16;2.70;;;1.80;;
62401;SDS011;48440;51.224;22.506;2023-05-07T12:38:42;2.22;;;1.52;;
62401;SDS011;48440;51.224;22.506;2023-05-07T12:41:08;2.47;;;1.67;;
62401;SDS011;48440;51.224;22.506;2023-05-07T12:43:35;2.67;;;1.60;;
62401;SDS011;48440;51.224;22.506;2023-05-07T12:46:02;3.40;;;1.90;;
62401;SDS011;48440;51.224;22.506;2023-05-07T12:48:30;2.65;;;1.90;;
62401;SDS011;48440;51.224;22.506;2023-05-07T12:50:56;3.17;;;1.52;;
62401;SDS011;48440;51.224;22.506;2023-05-07T12:53:23;2.55;;;1.70;;
62401;SDS011;48440;51.224;22.506;2023-05-07T12:55:52;2.70;;;1.80;;
62401;SDS011;48440;51.224;22.506;2023-05-07T12:58:20;2.33;;;1.70;;
62401;SDS011;48440;51.224;22.506;2023-05-07T13:00:49;2.92;;;1.70;;
62401;SDS011;48440;51.224;22.506;2023-05-07T13:03:22;2.97;;;1.60;;
62401;SDS011;48440;51.224;22.506;2023-05-07T13:05:59;2.03;;;1.58;;
62401;SDS011;48440;51.224;22.506;2023-05-07T13:08:30;2.08;;;1.55;;
62401;SDS011;48440;51.224;22.506;2023-05-07T13:10:58;1.77;;;1.50;;
62401;SDS011;48440;51.224;22.506;2023-05-07T13:13:28;2.25;;;1.50;;
62401;SDS011;48440;51.224;22.506;2023-05-07T13:15:53;2.45;;;1.80;;
62401;SDS011;48440;51.224;22.506;2023-05-07T13:18:18;1.90;;;1.30;;
62401;SDS011;48440;51.224;22.506;2023-05-07T13:20:44;2.05;;;1.52;;
62401;SDS011;48440;51.224;22.506;2023-05-07T13:23:10;1.85;;;1.42;;
62401;SDS011;48440;51.224;22.506;2023-05-07T13:25:35;2.10;;;1.58;;
62401;SDS011;48440;51.224;22.506;2023-05-07T13:28:01;2.13;;;1.50;;
62401;SDS011;48440;51.224;22.506;2023-05-07T13:30:27;1.92;;;1.50;;
62401;SDS011;48440;51.224;22.506;2023-05-07T13:32:54;1.70;;;1.30;;
62401;SDS011;48440;51.224;22.506;2023-05-07T13:35:21;2.20;;;1.48;;
62401;SDS011;48440;51.224;22.506;2023-05-07T13:37:46;2.45;;;1.58;;
62401;SDS011;48440;51.224;22.506;2023-05-07T13:40:14;1.83;;;1.58;;
62401;SDS011;48440;51.224;22.506;2023-05-07T13:42:40;1.70;;;1.30;;
62401;SDS011;48440;51.224;22.506;2023-05-07T13:45:06;4.40;;;1.60;;
62401;SDS011;48440;51.224;22.506;2023-05-07T13:47:33;2.47;;;1.52;;
62401;SDS011;48440;51.224;22.506;2023-05-07T13:49:58;3.70;;;1.80;;
62401;SDS011;48440;51.224;22.506;2023-05-07T13:52:24;2.00;;;1.55;;
62401;SDS011;48440;51.224;22.506;2023-05-07T13:54:50;1.95;;;1.42;;
62401;SDS011;48440;51.224;22.506;2023-05-07T13:57:17;4.80;;;1.50;;
62401;SDS011;48440;51.224;22.506;2023-05-07T13:59:43;2.40;;;1.75;;
62401;SDS011;48440;51.224;22.506;2023-05-07T14:02:09;2.53;;;1.50;;
62401;SDS011;48440;51.224;22.506;2023-05-07T14:04:34;2.30;;;1.60;;
62401;SDS011;48440;51.224;22.506;2023-05-07T14:07:00;2.60;;;1.88;;
62401;SDS011;48440;51.224;22.506;2023-05-07T14:09:25;2.42;;;1.50;;
62401;SDS011;48440;51.224;22.506;2023-05-07T14:11:51;2.10;;;1.40;;
62401;SDS011;48440;51.224;22.506;2023-05-07T14:14:17;2.40;;;1.40;;
62401;SDS011;48440;51.224;22.506;2023-05-07T14:16:43;2.72;;;1.50;;
62401;SDS011;48440;51.224;22.506;2023-05-07T14:19:10;2.03;;;1.50;;
62401;SDS011;48440;51.224;22.506;2023-05-07T14:21:36;2.10;;;1.50;;
62401;SDS011;48440;51.224;22.506;2023-05-07T14:24:01;2.10;;;1.40;;
62401;SDS011;48440;51.224;22.506;2023-05-07T14:26:27;2.35;;;1.65;;
62401;SDS011;48440;51.224;22.506;2023-05-07T14:28:53;2.10;;;1.35;;
62401;SDS011;48440;51.224;22.506;2023-05-07T14:31:21;2.65;;;1.70;;
62401;SDS011;48440;51.224;22.506;2023-05-07T14:33:47;2.53;;;1.70;;
62401;SDS011;48440;51.224;22.506;2023-05-07T14:36:12;2.10;;;1.50;;
62401;SDS011;48440;51.224;22.506;2023-05-07T14:38:38;2.38;;;1.70;;
62401;SDS011;48440;51.224;22.506;2023-05-07T14:41:03;2.10;;;1.48;;
62401;SDS011;48440;51.224;22.506;2023-05-07T14:43:29;2.25;;;1.40;;
62401;SDS011;48440;51.224;22.506;2023-05-07T14:45:55;2.83;;;1.83;;
62401;SDS011;48440;51.224;22.506;2023-05-07T14:48:20;3.25;;;1.90;;
62401;SDS011;48440;51.224;22.506;2023-05-07T14:50:49;2.63;;;1.50;;